Time;durP1;ratioP1;P1;durP2;ratioP2;P2;SDS_P1;SDS_P2;PMS_P1;PMS_P2;Temp;Humidity;BMP_temperature;BMP_pressure;BME280_temperature;BME280_humidity;BME280_pressure;Samples;Min_cycle;Max_cycle;Signal;HPM_P1;HPM_P2
2023/06/10 00:02:11;;;;;;;1999.90;999.90;;;22.20;79.10;;;;;;5033334;28;20247;-68
2023/06/10 00:04:37;;;;;;;1999.90;999.90;;;22.20;83.70;;;;;;5033531;28;20420;-68
2023/06/10 00:07:08;;;;;;;1999.90;999.90;;;22.10;89.00;;;;;;5033557;28;20184;-68
2023/06/10 00:09:36;;;;;;;1999.90;999.90;;;22.00;91.90;;;;;;5033053;28;20184;-67
2023/06/10 00:12:02;;;;;;;1999.90;999.90;;;22.00;94.80;;;;;;5033351;28;20408;-68
2023/06/10 00:14:28;;;;;;;1999.90;999.90;;;21.90;96.60;;;;;;5033511;28;20731;-68
2023/06/10 00:16:55;;;;;;;1999.90;999.90;;;21.70;99.00;;;;;;5033269;28;20404;-68
2023/06/10 00:19:25;;;;;;;1999.90;999.90;;;21.70;99.90;;;;;;5033214;28;20321;-67
2023/06/10 00:21:52;;;;;;;1999.90;999.90;;;21.60;99.90;;;;;;5033109;28;20890;-67
2023/06/10 00:24:18;;;;;;;1999.90;999.90;;;21.60;99.90;;;;;;5033276;28;20414;-67
2023/06/10 00:26:43;;;;;;;1999.90;999.90;;;21.50;99.90;;;;;;5033294;28;21112;-67
2023/06/10 00:29:09;;;;;;;1999.90;999.90;;;21.40;99.90;;;;;;5033156;28;20222;-68
2023/06/10 00:31:36;;;;;;;1999.90;999.90;;;21.30;99.90;;;;;;5032980;28;20241;-67
2023/06/10 00:34:02;;;;;;;1999.90;999.90;;;21.20;99.90;;;;;;5032875;28;20451;-68
2023/06/10 00:36:28;;;;;;;1999.90;999.90;;;21.20;99.90;;;;;;5032921;28;20409;-68
2023/06/10 00:38:53;;;;;;;1999.90;999.90;;;21.20;99.90;;;;;;5032881;28;20179;-68
2023/06/10 00:41:19;;;;;;;1999.90;999.90;;;21.20;99.90;;;;;;5032625;28;20374;-68
2023/06/10 00:43:45;;;;;;;1999.90;999.90;;;21.20;99.90;;;;;;5033081;28;20168;-67
2023/06/10 00:46:12;;;;;;;1999.90;999.90;;;21.10;99.90;;;;;;5032724;28;20238;-67
2023/06/10 00:48:38;;;;;;;1999.90;999.90;;;21.10;99.90;;;;;;5032739;28;20275;-67
2023/06/10 00:51:05;;;;;;;1999.90;999.90;;;21.00;99.90;;;;;;5032410;28;20932;-66
2023/06/10 00:53:31;;;;;;;1999.90;999.90;;;21.10;99.90;;;;;;5032627;28;20424;-67
2023/06/10 00:55:57;;;;;;;1999.90;999.90;;;21.00;99.90;;;;;;5032745;28;20380;-67
2023/06/10 00:58:25;;;;;;;1999.90;999.90;;;20.90;99.90;;;;;;5032512;28;20388;-67
2023/06/10 01:00:51;;;;;;;1999.90;999.90;;;20.90;99.90;;;;;;5032419;28;20435;-67
2023/06/10 01:03:18;;;;;;;1999.90;999.90;;;21.00;99.90;;;;;;5032316;28;20381;-67
2023/06/10 01:05:49;;;;;;;1999.90;999.90;;;20.90;99.90;;;;;;5032297;28;20756;-67
2023/06/10 01:08:32;;;;;;;1999.90;999.90;;;20.90;99.90;;;;;;5032474;28;20871;-68
2023/06/10 01:11:00;;;;;;;1999.90;999.90;;;20.90;99.90;;;;;;5032128;28;20400;-67
2023/06/10 01:13:28;;;;;;;1999.90;999.90;;;20.80;99.90;;;;;;5032356;28;20418;-67
2023/06/10 01:15:55;;;;;;;1999.90;999.90;;;20.70;99.90;;;;;;5032232;28;20407;-67
2023/06/10 01:18:21;;;;;;;1999.90;999.90;;;20.70;99.90;;;;;;5032228;28;20751;-67
2023/06/10 01:20:48;;;;;;;1999.90;999.90;;;20.60;99.90;;;;;;5031362;28;20464;-67
2023/06/10 01:23:15;;;;;;;1999.90;999.90;;;20.50;99.90;;;;;;5032154;28;20824;-68
2023/06/10 01:25:46;;;;;;;1999.90;999.90;;;20.30;99.90;;;;;;5032118;28;20392;-68
2023/06/10 01:28:18;;;;;;;1999.90;999.90;;;20.30;99.90;;;;;;5032162;28;20417;-67
2023/06/10 01:30:56;;;;;;;1999.90;999.90;;;20.30;99.90;;;;;;5031949;28;20471;-67
2023/06/10 01:33:28;;;;;;;1999.90;999.90;;;20.30;99.90;;;;;;5032370;28;20429;-67
2023/06/10 01:35:56;;;;;;;1999.90;999.90;;;20.20;99.90;;;;;;5032133;28;20468;-67
2023/06/10 01:38:26;;;;;;;1999.90;999.90;;;20.00;99.90;;;;;;5032013;28;20410;-68
2023/06/10 01:40:53;;;;;;;1999.90;999.90;;;20.00;99.90;;;;;;5031781;28;20464;-67
2023/06/10 01:43:20;;;;;;;1999.90;999.90;;;20.00;99.90;;;;;;5031914;28;20412;-68
2023/06/10 01:45:46;;;;;;;1999.90;999.90;;;19.90;99.90;;;;;;5031816;28;20467;-68
2023/06/10 01:48:12;;;;;;;1999.90;999.90;;;19.90;99.90;;;;;;5030936;28;20451;-67
2023/06/10 01:50:37;;;;;;;1999.90;999.90;;;19.90;99.90;;;;;;5031922;28;20613;-68
2023/06/10 01:53:04;;;;;;;1999.90;999.90;;;19.90;99.90;;;;;;5031676;28;20182;-68
2023/06/10 01:55:29;;;;;;;1999.90;999.90;;;19.80;99.90;;;;;;5031752;28;20169;-68
2023/06/10 01:57:55;;;;;;;1999.90;999.90;;;19.70;99.90;;;;;;5031657;28;20440;-68
2023/06/10 02:00:20;;;;;;;1999.90;999.90;;;19.70;99.90;;;;;;5031729;28;20214;-67
2023/06/10 02:02:46;;;;;;;1999.90;999.90;;;19.60;99.90;;;;;;5031529;28;20175;-67
2023/06/10 02:05:12;;;;;;;1999.90;999.90;;;19.60;99.90;;;;;;5031782;28;20175;-67
2023/06/10 02:07:38;;;;;;;1999.90;999.90;;;19.60;99.90;;;;;;5031664;28;20193;-67
2023/06/10 02:10:04;;;;;;;1999.90;999.90;;;19.70;99.90;;;;;;5031689;28;20180;-67
2023/06/10 02:12:30;;;;;;;1999.90;999.90;;;19.60;99.90;;;;;;5031443;28;20792;-67
2023/06/10 02:14:56;;;;;;;1999.90;999.90;;;19.40;99.90;;;;;;5031644;28;20384;-67
2023/06/10 02:17:23;;;;;;;1999.90;999.90;;;19.30;99.90;;;;;;5031661;28;20724;-68
2023/06/10 02:19:52;;;;;;;1999.90;999.90;;;19.20;99.90;;;;;;5031577;28;20243;-67
2023/06/10 02:22:20;;;;;;;1999.90;999.90;;;19.20;99.90;;;;;;5031465;28;20415;-67
2023/06/10 02:24:46;;;;;;;1999.90;999.90;;;19.20;99.90;;;;;;5031581;28;20419;-67
2023/06/10 02:27:11;;;;;;;1999.90;999.90;;;19.10;99.90;;;;;;5031446;28;20402;-68
2023/06/10 02:29:37;;;;;;;1999.90;999.90;;;19.10;99.90;;;;;;5031518;28;20183;-67
2023/06/10 02:32:03;;;;;;;1999.90;999.90;;;19.10;99.90;;;;;;5032989;28;20186;-67
2023/06/10 02:34:29;;;;;;;1999.90;999.90;;;19.10;99.90;;;;;;5035243;28;20172;-68
2023/06/10 02:36:54;;;;;;;1999.90;999.90;;;19.00;99.90;;;;;;5035220;28;20436;-68
2023/06/10 02:39:21;;;;;;;1999.90;999.90;;;19.00;99.90;;;;;;5035144;28;20646;-67
2023/06/10 02:41:46;;;;;;;1999.90;999.90;;;19.00;99.90;;;;;;5034836;28;20176;-68
2023/06/10 02:44:12;;;;;;;1999.90;999.90;;;19.00;99.90;;;;;;5035096;28;20746;-67
2023/06/10 02:46:38;;;;;;;1999.90;999.90;;;19.00;99.90;;;;;;5035021;28;20241;-67
2023/06/10 02:49:03;;;;;;;1999.90;999.90;;;19.00;99.90;;;;;;5035005;28;20679;-67
2023/06/10 02:51:29;;;;;;;1999.90;999.90;;;18.90;99.90;;;;;;5034778;28;20247;-68
2023/06/10 02:53:55;;;;;;;1999.90;999.90;;;18.80;99.90;;;;;;5034931;28;20657;-67
2023/06/10 02:56:21;;;;;;;1999.90;999.90;;;18.80;99.90;;;;;;5034801;28;20566;-67
2023/06/10 02:58:48;;;;;;;1999.90;999.90;;;18.80;99.90;;;;;;5034692;28;20416;-67
2023/06/10 03:01:14;;;;;;;1999.90;999.90;;;18.80;99.90;;;;;;5034562;28;20413;-67
2023/06/10 03:03:42;;;;;;;1999.90;999.90;;;18.60;99.90;;;;;;5034703;28;20439;-67
2023/06/10 03:06:12;;;;;;;1999.90;999.90;;;18.60;99.90;;;;;;5035112;28;20431;-67
2023/06/10 03:08:38;;;;;;;1999.90;999.90;;;18.60;99.90;;;;;;5035077;28;20404;-67
2023/06/10 03:11:03;;;;;;;1999.90;999.90;;;18.70;99.90;;;;;;5034937;28;20415;-67
2023/06/10 03:13:29;;;;;;;1999.90;999.90;;;18.70;99.90;;;;;;5035362;28;20166;-67
2023/06/10 03:15:55;;;;;;;1999.90;999.90;;;18.70;99.90;;;;;;5035203;28;20522;-67
2023/06/10 03:18:22;;;;;;;1999.90;999.90;;;18.70;99.90;;;;;;5035442;28;20197;-67
2023/06/10 03:20:48;;;;;;;1999.90;999.90;;;18.80;99.90;;;;;;5034324;28;20618;-67
2023/06/10 03:23:15;;;;;;;1999.90;999.90;;;18.80;99.90;;;;;;5034260;28;20406;-67
2023/06/10 03:25:41;;;;;;;1999.90;999.90;;;18.80;99.90;;;;;;5034419;28;20250;-67
2023/06/10 03:28:06;;;;;;;1999.90;999.90;;;18.90;99.90;;;;;;5034240;28;20505;-67
2023/06/10 03:30:32;;;;;;;1999.90;999.90;;;19.00;99.90;;;;;;5034431;28;20184;-67
2023/06/10 03:32:57;;;;;;;1999.90;999.90;;;19.00;99.90;;;;;;5034129;28;20173;-67
2023/06/10 03:35:23;;;;;;;1999.90;999.90;;;19.00;99.90;;;;;;5034265;28;20177;-67
2023/06/10 03:37:49;;;;;;;1999.90;999.90;;;19.00;99.90;;;;;;5034059;28;20189;-67
2023/06/10 03:40:14;;;;;;;1999.90;999.90;;;19.00;99.90;;;;;;5034107;28;20226;-67
2023/06/10 03:42:40;;;;;;;1999.90;999.90;;;19.00;99.90;;;;;;5033446;28;20168;-67
2023/06/10 03:45:06;;;;;;;1999.90;999.90;;;19.10;99.90;;;;;;5033788;28;20165;-67
2023/06/10 03:47:36;;;;;;;1999.90;999.90;;;19.10;99.90;;;;;;5033913;28;20222;-67
2023/06/10 03:50:03;;;;;;;1999.90;999.90;;;19.10;99.90;;;;;;5034035;28;20411;-67
2023/06/10 03:52:29;;;;;;;1999.90;999.90;;;19.20;99.90;;;;;;5033664;28;20822;-67
2023/06/10 03:54:54;;;;;;;1999.90;999.90;;;19.20;99.90;;;;;;5033889;28;20479;-67
2023/06/10 03:57:20;;;;;;;1999.90;999.90;;;19.20;99.90;;;;;;5033785;28;20194;-67
2023/06/10 03:59:45;;;;;;;1999.90;999.90;;;19.30;99.90;;;;;;5033781;28;20675;-67
2023/06/10 04:02:11;;;;;;;1999.90;999.90;;;19.30;99.90;;;;;;5033464;28;20166;-67
2023/06/10 04:04:37;;;;;;;1999.90;999.90;;;19.20;99.90;;;;;;5033794;28;20229;-67
2023/06/10 04:07:04;;;;;;;1999.90;999.90;;;19.10;99.90;;;;;;5033599;28;20196;-67
2023/06/10 04:09:29;;;;;;;1999.90;999.90;;;18.90;99.90;;;;;;5033561;28;20913;-67
2023/06/10 04:11:55;;;;;;;1999.90;999.90;;;18.80;99.90;;;;;;5033417;28;20422;-67
2023/06/10 04:14:21;;;;;;;1999.90;999.90;;;18.80;99.90;;;;;;5033613;28;20178;-67
2023/06/10 04:16:46;;;;;;;1999.90;999.90;;;18.90;99.90;;;;;;5033489;28;20210;-67
2023/06/10 04:19:12;;;;;;;1999.90;999.90;;;19.00;99.90;;;;;;5033237;28;20214;-67
2023/06/10 04:21:37;;;;;;;1999.90;999.90;;;19.10;99.90;;;;;;5033191;28;20165;-67
2023/06/10 04:24:03;;;;;;;1999.90;999.90;;;19.10;99.90;;;;;;5033342;28;20530;-67
2023/06/10 04:26:29;;;;;;;1999.90;999.90;;;19.20;99.90;;;;;;5033268;28;20188;-67
2023/06/10 04:28:54;;;;;;;1999.90;999.90;;;19.20;99.90;;;;;;5033191;28;20468;-67
2023/06/10 04:31:20;;;;;;;1999.90;999.90;;;19.20;99.90;;;;;;5032927;28;20175;-67
2023/06/10 04:33:46;;;;;;;1999.90;999.90;;;19.30;99.90;;;;;;5033348;28;20168;-67
2023/06/10 04:36:11;;;;;;;1999.90;999.90;;;19.40;99.90;;;;;;5033181;28;20197;-67
2023/06/10 04:38:37;;;;;;;1999.90;999.90;;;19.40;99.90;;;;;;5033106;28;20213;-67
2023/06/10 04:41:03;;;;;;;1999.90;999.90;;;19.60;99.90;;;;;;5032650;28;20498;-67
2023/06/10 04:43:30;;;;;;;1999.90;999.90;;;19.60;99.90;;;;;;5032984;28;20173;-67
2023/06/10 04:45:56;;;;;;;1999.90;999.90;;;19.60;99.90;;;;;;5032966;28;20177;-67
2023/06/10 04:48:23;;;;;;;1999.90;999.90;;;19.60;99.90;;;;;;5032868;28;20400;-67
2023/06/10 04:50:50;;;;;;;1999.90;999.90;;;19.70;99.90;;;;;;5032667;28;20205;-67
2023/06/10 04:53:16;;;;;;;1999.90;999.90;;;19.70;99.90;;;;;;5032708;28;20548;-67
2023/06/10 04:55:42;;;;;;;1999.90;999.90;;;19.70;99.90;;;;;;5031859;28;20408;-67
2023/06/10 04:58:07;;;;;;;1999.90;999.90;;;19.80;99.90;;;;;;5032473;28;20530;-67
2023/06/10 05:00:33;;;;;;;1999.90;999.90;;;19.80;99.90;;;;;;5032493;28;20228;-67
2023/06/10 05:02:58;;;;;;;1999.90;999.90;;;19.90;99.90;;;;;;5032370;28;20253;-67
2023/06/10 05:05:24;;;;;;;1999.90;999.90;;;19.90;99.90;;;;;;5032530;28;20181;-67
2023/06/10 05:07:50;;;;;;;1999.90;999.90;;;19.90;99.90;;;;;;5032420;28;20207;-67
2023/06/10 05:10:15;;;;;;;1999.90;999.90;;;20.00;99.90;;;;;;5032399;28;20197;-68
2023/06/10 05:12:41;;;;;;;1999.90;999.90;;;20.10;99.90;;;;;;5032112;28;20180;-68
2023/06/10 05:15:07;;;;;;;1999.90;999.90;;;20.20;99.90;;;;;;5032437;28;20182;-67
2023/06/10 05:17:34;;;;;;;1999.90;999.90;;;20.20;99.90;;;;;;5032245;28;20256;-67
2023/06/10 05:20:00;;;;;;;1999.90;999.90;;;20.20;99.90;;;;;;5032084;28;20462;-67
2023/06/10 05:22:27;;;;;;;1999.90;999.90;;;20.30;99.90;;;;;;5031913;28;20398;-68
2023/06/10 05:24:53;;;;;;;1999.90;999.90;;;20.40;99.90;;;;;;5032131;28;20414;-67
2023/06/10 05:27:18;;;;;;;1999.90;999.90;;;20.50;99.90;;;;;;5032014;28;20435;-67
2023/06/10 05:29:45;;;;;;;1999.90;999.90;;;20.60;99.90;;;;;;5032090;28;20167;-67
2023/06/10 05:32:11;;;;;;;1999.90;999.90;;;20.70;99.90;;;;;;5031788;28;20260;-67
2023/06/10 05:34:36;;;;;;;1999.90;999.90;;;20.80;99.90;;;;;;5032049;28;20451;-67
2023/06/10 05:37:03;;;;;;;1999.90;999.90;;;20.90;99.90;;;;;;5032006;28;20238;-67
2023/06/10 05:39:28;;;;;;;1999.90;999.90;;;21.00;99.90;;;;;;5032132;28;20792;-68
2023/06/10 05:41:54;;;;;;;1999.90;999.90;;;21.10;99.90;;;;;;5031656;28;20414;-67
2023/06/10 05:44:19;;;;;;;1999.90;999.90;;;21.10;99.90;;;;;;5032054;28;20202;-68
2023/06/10 05:46:45;;;;;;;1999.90;999.90;;;21.20;99.90;;;;;;5031903;28;20197;-68
2023/06/10 05:49:11;;;;;;;1999.90;999.90;;;21.40;99.90;;;;;;5031833;28;20517;-67
2023/06/10 05:51:37;;;;;;;1999.90;999.90;;;21.40;99.90;;;;;;5031614;28;20182;-68
2023/06/10 05:54:02;;;;;;;1999.90;999.90;;;21.40;99.90;;;;;;5032039;28;20228;-68
2023/06/10 05:56:28;;;;;;;1999.90;999.90;;;21.50;99.90;;;;;;5031882;28;20786;-67
2023/06/10 05:58:54;;;;;;;1999.90;999.90;;;21.60;99.90;;;;;;5031799;28;20657;-67
2023/06/10 06:01:20;;;;;;;1999.90;999.90;;;21.70;99.90;;;;;;5031598;28;20243;-68
2023/06/10 06:03:45;;;;;;;1999.90;999.90;;;21.80;99.90;;;;;;5031794;28;20168;-67
2023/06/10 06:06:11;;;;;;;1999.90;999.90;;;21.80;99.90;;;;;;5032195;28;20187;-68
2023/06/10 06:08:36;;;;;;;1999.90;999.90;;;21.90;99.90;;;;;;5035802;28;20576;-68
2023/06/10 06:11:02;;;;;;;1999.90;999.90;;;22.00;99.90;;;;;;5035472;28;20207;-68
2023/06/10 06:13:27;;;;;;;1999.90;999.90;;;22.10;99.90;;;;;;5035720;28;20251;-67
2023/06/10 06:15:53;;;;;;;1999.90;999.90;;;22.10;99.90;;;;;;5035538;28;20228;-68
2023/06/10 06:18:19;;;;;;;1999.90;999.90;;;22.20;99.90;;;;;;5035577;28;20173;-68
2023/06/10 06:20:44;;;;;;;1999.90;999.90;;;22.20;99.90;;;;;;5035478;28;20208;-68
2023/06/10 06:23:10;;;;;;;1999.90;999.90;;;22.20;99.90;;;;;;5035249;28;20695;-68
2023/06/10 06:25:38;;;;;;;1999.90;999.90;;;22.30;99.90;;;;;;5035504;28;20186;-68
2023/06/10 06:28:08;;;;;;;1999.90;999.90;;;22.40;99.90;;;;;;5035396;28;20490;-67
2023/06/10 06:30:35;;;;;;;1999.90;999.90;;;22.40;99.90;;;;;;5035415;28;20546;-68
2023/06/10 06:33:00;;;;;;;1999.90;999.90;;;22.50;99.90;;;;;;5035035;28;20411;-67
2023/06/10 06:35:26;;;;;;;1999.90;999.90;;;22.60;99.90;;;;;;5034203;28;20408;-67
2023/06/10 06:37:51;;;;;;;1999.90;999.90;;;22.60;99.90;;;;;;5034926;28;20190;-67
2023/06/10 06:40:17;;;;;;;1999.90;999.90;;;22.70;99.90;;;;;;5034940;28;20623;-68
2023/06/10 06:42:43;;;;;;;1999.90;999.90;;;22.70;99.90;;;;;;5034882;28;20173;-68
2023/06/10 06:45:09;;;;;;;1999.90;999.90;;;22.80;99.90;;;;;;5035059;28;20646;-68
2023/06/10 06:47:34;;;;;;;1999.90;999.90;;;22.90;99.90;;;;;;5034884;28;20193;-68
2023/06/10 06:50:00;;;;;;;1999.90;999.90;;;23.00;99.90;;;;;;5034942;28;20979;-67
2023/06/10 06:52:26;;;;;;;1999.90;999.90;;;23.00;99.90;;;;;;5034828;28;20182;-68
2023/06/10 06:54:51;;;;;;;1999.90;999.90;;;23.10;99.90;;;;;;5035030;28;20196;-68
2023/06/10 06:57:17;;;;;;;1999.90;999.90;;;23.20;99.90;;;;;;5034818;28;20280;-67
2023/06/10 06:59:42;;;;;;;1999.90;999.90;;;23.20;99.90;;;;;;5034762;28;20246;-67
2023/06/10 07:02:08;;;;;;;1999.90;999.90;;;23.30;99.90;;;;;;5034482;28;20223;-67
2023/06/10 07:04:33;;;;;;;1999.90;999.90;;;23.40;99.90;;;;;;5034739;28;20175;-67
2023/06/10 07:06:59;;;;;;;1999.90;999.90;;;23.40;99.90;;;;;;5034650;28;20655;-67
2023/06/10 07:09:25;;;;;;;1999.90;999.90;;;23.40;99.90;;;;;;5034642;28;20175;-67
2023/06/10 07:11:50;;;;;;;1999.90;999.90;;;23.50;99.90;;;;;;5034275;28;20652;-67
2023/06/10 07:14:16;;;;;;;1999.90;999.90;;;23.50;99.90;;;;;;5034540;28;20262;-67
2023/06/10 07:16:41;;;;;;;1999.90;999.90;;;23.60;99.90;;;;;;5034466;28;20184;-68
2023/06/10 07:19:07;;;;;;;1999.90;999.90;;;23.70;99.90;;;;;;5033154;28;20168;-68
2023/06/10 07:21:33;;;;;;;1999.90;999.90;;;23.80;99.90;;;;;;5034150;28;20634;-68
2023/06/10 07:23:59;;;;;;;1999.90;999.90;;;23.90;99.90;;;;;;5034265;28;20180;-67
2023/06/10 07:26:25;;;;;;;1999.90;999.90;;;24.00;99.90;;;;;;5034201;28;20419;-67
2023/06/10 07:28:51;;;;;;;1999.90;999.90;;;24.00;99.90;;;;;;5034265;28;20876;-67
2023/06/10 07:31:17;;;;;;;1999.90;999.90;;;24.10;99.90;;;;;;5033858;28;20407;-67
2023/06/10 07:33:43;;;;;;;1999.90;999.90;;;24.20;99.90;;;;;;5034395;28;20377;-68
2023/06/10 07:36:09;;;;;;;1999.90;999.90;;;24.30;99.90;;;;;;5034272;28;20196;-67
2023/06/10 07:38:35;;;;;;;1999.90;999.90;;;24.30;99.90;;;;;;5033998;28;20422;-67
2023/06/10 07:41:00;;;;;;;1999.90;999.90;;;24.40;99.90;;;;;;5033776;28;20212;-67
2023/06/10 07:43:26;;;;;;;1999.90;999.90;;;24.50;99.90;;;;;;5034047;28;20418;-68
2023/06/10 07:45:52;;;;;;;1999.90;999.90;;;24.50;99.90;;;;;;5033802;28;20175;-67
2023/06/10 07:48:18;;;;;;;1999.90;999.90;;;24.50;99.90;;;;;;5033900;28;20172;-67
2023/06/10 07:50:43;;;;;;;1999.90;999.90;;;24.50;99.90;;;;;;5033906;28;20168;-68
2023/06/10 07:53:09;;;;;;;1999.90;999.90;;;24.60;99.90;;;;;;5033542;28;20896;-67
2023/06/10 07:55:35;;;;;;;1999.90;999.90;;;24.60;99.90;;;;;;5033890;28;20172;-68
2023/06/10 07:58:00;;;;;;;1999.90;999.90;;;24.70;99.90;;;;;;5033682;28;20192;-67
2023/06/10 08:00:26;;;;;;;1999.90;999.90;;;24.70;99.90;;;;;;5033566;28;20196;-68
2023/06/10 08:02:51;;;;;;;1999.90;999.90;;;24.80;99.90;;;;;;5033668;28;20572;-68
2023/06/10 08:05:17;;;;;;;1999.90;999.90;;;24.90;99.90;;;;;;5033737;28;20259;-68
2023/06/10 08:07:43;;;;;;;1999.90;999.90;;;25.10;99.90;;;;;;5033574;28;20218;-68
2023/06/10 08:10:09;;;;;;;1999.90;999.90;;;25.10;99.90;;;;;;5033559;28;20168;-68
2023/06/10 08:12:34;;;;;;;1999.90;999.90;;;25.20;97.60;;;;;;5033128;28;20176;-67
2023/06/10 08:15:00;;;;;;;1999.90;999.90;;;25.20;98.40;;;;;;5033381;28;20226;-67
2023/06/10 08:17:26;;;;;;;1999.90;999.90;;;25.30;98.80;;;;;;5033527;28;20518;-68
2023/06/10 08:19:52;;;;;;;1999.90;999.90;;;25.40;97.90;;;;;;5033116;28;20466;-67
2023/06/10 08:22:18;;;;;;;1999.90;999.90;;;25.40;95.60;;;;;;5032940;28;20164;-67
2023/06/10 08:24:43;;;;;;;1999.90;999.90;;;25.50;93.80;;;;;;5033157;28;20267;-68
2023/06/10 08:27:10;;;;;;;1999.90;999.90;;;25.50;95.00;;;;;;5032944;28;20447;-68
2023/06/10 08:29:35;;;;;;;1999.90;999.90;;;25.60;94.60;;;;;;5032866;28;20168;-67
2023/06/10 08:32:02;;;;;;;1999.90;999.90;;;25.80;93.50;;;;;;5032701;28;20411;-68
2023/06/10 08:34:27;;;;;;;1999.90;999.90;;;25.80;91.70;;;;;;5032884;28;20176;-68
2023/06/10 08:36:55;;;;;;;1999.90;999.90;;;25.90;92.10;;;;;;5032743;28;20435;-68
2023/06/10 08:39:21;;;;;;;1999.90;999.90;;;26.10;92.30;;;;;;5032951;28;20211;-68
2023/06/10 08:42:25;;;;;;;1999.90;999.90;;;26.20;92.50;;;;;;5031985;28;20567;-68
2023/06/10 08:44:55;;;;;;;1999.90;999.90;;;26.30;90.90;;;;;;5009657;28;20426;-68
2023/06/10 08:47:23;;;;;;;1999.90;999.90;;;26.40;83.00;;;;;;5032477;28;20430;-70
2023/06/10 08:49:49;;;;;;;1999.90;999.90;;;26.40;82.20;;;;;;5018571;28;20438;-69
2023/06/10 08:52:16;;;;;;;1999.90;999.90;;;26.40;83.10;;;;;;5021259;28;20418;-68
2023/06/10 08:55:00;;;;;;;1999.90;999.90;;;26.50;80.10;;;;;;5010259;28;20175;-68
2023/06/10 08:57:26;;;;;;;1999.90;999.90;;;26.60;79.30;;;;;;5026266;28;20430;-68
2023/06/10 08:59:54;;;;;;;1999.90;999.90;;;26.60;78.90;;;;;;5025828;28;20451;-69
2023/06/10 09:02:21;;;;;;;1999.90;999.90;;;26.70;82.50;;;;;;5027551;28;20908;-69
2023/06/10 09:04:49;;;;;;;1999.90;999.90;;;26.80;78.00;;;;;;5028349;28;20796;-70
2023/06/10 09:07:15;;;;;;;1999.90;999.90;;;26.80;74.40;;;;;;5028132;28;20474;-68
2023/06/10 09:09:43;;;;;;;1999.90;999.90;;;27.00;68.90;;;;;;5027583;28;20415;-67
2023/06/10 09:12:09;;;;;;;1999.90;999.90;;;27.10;67.10;;;;;;5027318;28;20493;-67
2023/06/10 09:14:35;;;;;;;1999.90;999.90;;;27.30;63.40;;;;;;5028199;28;20419;-67
2023/06/10 09:17:01;;;;;;;1999.90;999.90;;;27.40;62.40;;;;;;5027671;28;20993;-67
2023/06/10 09:19:28;;;;;;;1999.90;999.90;;;27.60;63.60;;;;;;5028125;28;20214;-68
2023/06/10 09:21:53;;;;;;;1999.90;999.90;;;27.60;57.60;;;;;;5027652;28;20434;-67
2023/06/10 09:24:22;;;;;;;1999.90;999.90;;;27.70;57.60;;;;;;5027279;28;20419;-67
2023/06/10 09:26:47;;;;;;;1999.90;999.90;;;27.80;59.50;;;;;;5027529;28;20196;-67
2023/06/10 09:29:13;;;;;;;1999.90;999.90;;;27.90;55.10;;;;;;5027479;28;20794;-67
2023/06/10 09:31:43;;;;;;;1999.90;999.90;;;27.90;56.30;;;;;;5009009;28;20184;-67
2023/06/10 09:34:11;;;;;;;1999.90;999.90;;;28.10;56.40;;;;;;5007477;28;20204;-66
2023/06/10 09:36:38;;;;;;;1999.90;999.90;;;28.20;56.40;;;;;;5008062;28;20442;-67
2023/06/10 09:39:04;;;;;;;1999.90;999.90;;;28.30;56.00;;;;;;5007502;28;20936;-67
2023/06/10 09:41:39;;;;;;;1999.90;999.90;;;28.30;54.00;;;;;;5006588;28;20422;-67
2023/06/10 09:44:13;;;;;;;1999.90;999.90;;;28.50;54.40;;;;;;5009536;28;20415;-67
2023/06/10 09:46:38;;;;;;;1999.90;999.90;;;28.60;51.30;;;;;;5007520;28;20435;-66
2023/06/10 09:49:04;;;;;;;1999.90;999.90;;;28.60;51.40;;;;;;5021857;28;20408;-67
2023/06/10 09:51:29;;;;;;;1999.90;999.90;;;28.70;48.90;;;;;;5026504;28;20168;-67
2023/06/10 09:53:55;;;;;;;1999.90;999.90;;;28.90;47.10;;;;;;5027828;28;20626;-67
2023/06/10 09:56:23;;;;;;;1999.90;999.90;;;28.90;43.90;;;;;;5027394;28;20188;-67
2023/06/10 09:58:52;;;;;;;1999.90;999.90;;;29.00;43.80;;;;;;5026699;28;20537;-67
2023/06/10 10:01:18;;;;;;;1999.90;999.90;;;29.10;44.20;;;;;;5012535;28;20602;-66
2023/06/10 10:03:48;;;;;;;1999.90;999.90;;;29.30;44.70;;;;;;5007657;28;20455;-67
2023/06/10 10:06:15;;;;;;;1999.90;999.90;;;29.40;40.40;;;;;;5007098;28;20243;-67
2023/06/10 10:08:41;;;;;;;1999.90;999.90;;;29.60;39.50;;;;;;5007248;28;20431;-67
2023/06/10 10:11:07;;;;;;;1999.90;999.90;;;29.70;39.40;;;;;;5007852;28;20794;-67
2023/06/10 10:13:37;;;;;;;1999.90;999.90;;;29.80;36.00;;;;;;5007139;28;20655;-67
2023/06/10 10:16:11;;;;;;;1999.90;999.90;;;29.90;37.60;;;;;;5006956;28;20412;-67
2023/06/10 10:18:41;;;;;;;1999.90;999.90;;;30.10;33.40;;;;;;5006945;28;20794;-67
2023/06/10 10:21:12;;;;;;;1999.90;999.90;;;30.10;31.80;;;;;;5007100;28;20467;-67
2023/06/10 10:24:07;;;;;;;1999.90;999.90;;;30.20;30.60;;;;;;5007716;28;20408;-68
2023/06/10 10:26:34;;;;;;;1999.90;999.90;;;30.40;29.20;;;;;;5006924;28;20424;-67
2023/06/10 10:29:30;;;;;;;1999.90;999.90;;;30.60;29.40;;;;;;5007254;28;20415;-66
2023/06/10 10:32:00;;;;;;;1999.90;999.90;;;30.70;26.70;;;;;;5006280;28;20511;-67
2023/06/10 10:34:48;;;;;;;1999.90;999.90;;;30.80;27.60;;;;;;5006869;28;20462;-67
2023/06/10 10:37:13;;;;;;;1999.90;999.90;;;31.10;26.30;;;;;;5007212;28;20428;-67
2023/06/10 10:39:40;;;;;;;1999.90;999.90;;;31.20;23.90;;;;;;5006869;28;21156;-67
2023/06/10 10:42:10;;;;;;;1999.90;999.90;;;31.20;24.10;;;;;;5007358;28;20709;-67
2023/06/10 10:44:37;;;;;;;1999.90;999.90;;;31.20;22.90;;;;;;5007239;28;20506;-67
2023/06/10 10:47:04;;;;;;;1999.90;999.90;;;31.20;21.70;;;;;;5006869;28;21319;-67
2023/06/10 10:49:32;;;;;;;1999.90;999.90;;;31.40;21.50;;;;;;5006795;28;20404;-67
2023/06/10 10:51:59;;;;;;;1999.90;999.90;;;31.40;20.90;;;;;;5007102;28;20858;-67
2023/06/10 10:54:30;;;;;;;1999.90;999.90;;;31.40;19.40;;;;;;5010601;28;20477;-68
2023/06/10 10:57:16;;;;;;;1999.90;999.90;;;31.50;20.20;;;;;;5010259;28;20432;-67
2023/06/10 10:59:55;;;;;;;1999.90;999.90;;;31.50;20.20;;;;;;5009917;28;21090;-68
2023/06/10 11:02:45;;;;;;;1999.90;999.90;;;31.60;20.60;;;;;;5010651;28;20447;-67
2023/06/10 11:05:14;;;;;;;1999.90;999.90;;;31.70;17.80;;;;;;5010302;28;20415;-67
2023/06/10 11:07:40;;;;;;;1999.90;999.90;;;31.80;17.90;;;;;;5010511;28;20494;-68
2023/06/10 11:10:11;;;;;;;1999.90;999.90;;;31.70;15.60;;;;;;5010174;28;20949;-67
2023/06/10 11:12:45;;;;;;;1999.90;999.90;;;31.70;15.20;;;;;;5009766;28;20955;-67
2023/06/10 11:15:24;;;;;;;1999.90;999.90;;;31.90;16.30;;;;;;5009721;28;20987;-67
2023/06/10 11:18:12;;;;;;;1999.90;999.90;;;31.80;16.60;;;;;;5009786;28;20439;-68
2023/06/10 11:20:49;;;;;;;1999.90;999.90;;;32.00;17.60;;;;;;5009577;28;20496;-67
2023/06/10 11:23:27;;;;;;;1999.90;999.90;;;32.20;17.20;;;;;;5010034;28;20997;-67
2023/06/10 11:26:11;;;;;;;1999.90;999.90;;;32.50;14.60;;;;;;5010144;28;20416;-67
2023/06/10 11:28:40;;;;;;;1999.90;999.90;;;32.60;12.00;;;;;;5010088;28;20416;-67
2023/06/10 11:31:06;;;;;;;1999.90;999.90;;;32.70;11.50;;;;;;5014525;28;20744;-67
2023/06/10 11:33:32;;;;;;;1999.90;999.90;;;32.80;10.50;;;;;;5023517;28;20415;-67
2023/06/10 11:35:58;;;;;;;1999.90;999.90;;;32.90;11.80;;;;;;5017135;28;20411;-67
2023/06/10 11:38:24;;;;;;;1999.90;999.90;;;32.80;9.70;;;;;;5028793;28;20386;-67
2023/06/10 11:40:53;;;;;;;1999.90;999.90;;;32.70;9.20;;;;;;5027975;28;20200;-68
2023/06/10 11:43:19;;;;;;;1999.90;999.90;;;32.90;9.60;;;;;;5028959;28;20553;-67
2023/06/10 11:45:45;;;;;;;1999.90;999.90;;;33.10;11.70;;;;;;5028486;28;20414;-68
2023/06/10 11:48:12;;;;;;;1999.90;999.90;;;33.30;11.30;;;;;;5029167;28;20833;-67
2023/06/10 11:50:38;;;;;;;1999.90;999.90;;;33.30;10.70;;;;;;5029342;28;20462;-66
2023/06/10 11:53:04;;;;;;;1999.90;999.90;;;33.40;8.50;;;;;;5029148;28;20414;-67
2023/06/10 11:55:43;;;;;;;1999.90;999.90;;;33.60;9.80;;;;;;5029027;28;20419;-67
2023/06/10 11:58:13;;;;;;;1999.90;999.90;;;33.60;7.30;;;;;;5028231;28;20246;-68
2023/06/10 12:00:50;;;;;;;1999.90;999.90;;;33.70;6.30;;;;;;5028785;28;20454;-67